メインページ
METAR-TAF:

METAR-TAF

空港 :

トゥーレ, グリーンランド

チューレ空軍基地

緯度: 76-32N, 経度: 068-42W, 海抜: 77m

現時点の気象観測

当レポートは36分前の00:58(UTC)に作成
の風 8kt
気温 -15°C
湿度 78%
気圧 1023 hPa
視程10km以上
晴天

METAR: BGTL 240058Z AUTO 10008KT 9999 CLR M15/M18 A3021 RMK AO2 SLP219 T11531184 $

時間: 22:34 (01:34 UTC)

予報

当レポートは26分前の01:08(UTC)に作成
予報は24日の 01時(UTC)から 25日の 07時(UTC)まで有効
東/南東の風 6kt、東/北東から南東の間で変化する
視程: 2409m
高度20000ftの雲はほとんどない

TAF: BGTL 240108Z 2401/2507 11006KT 9999 FEW200 QNH2973INS WND 070V140 TXM06/2418Z TNM15/2405Z LAST NO AMDS AFT 2401 NEXT 2409

4,000以上の空港の気象観測と天気予報(METAR報とTAF報)

利用可能な観測所は地図上に黄色い丸と赤い丸で示す。

丸の上にカーソルを重ねると観測所名を参照できる。

次にクリックすると気象観測と天気予報を参照できる。

マップの切り替え:黒色「×」印の緑ボタンをクリックして拡大、「-」印の緑ボタンをクリックして縮小、緑色の三角印をクリックして隣りの地図に切り替え


METAR-TAF: